KSCH/SCH METAR and TAF weather

Enter ICAO airport designator
Station Type Date Time Source
KSCH METAR 2022/01/26 02:58 UTC NOAA

KSCH 260258Z 29005KT 10SM SCT036 OVC046 M06/M10 A3017 RMK LAST


Station Type Date Time Source
KSCH Decoded METAR 2022/01/26 02:58 UTC NOAA

Schenectady Airport, NY, United States (KSCH) 42-51N 073-56W
Jan 25, 2022 - 09:58 PM EST / 2022.01.26 0258 UTC
Wind: from the WNW (290 degrees) at 6 MPH (5 KT):0
Visibility: 10 mile(s):0
Sky conditions: overcast
Temperature: 21 F (-6 C)
Windchill: 14 F (-10 C):1
Dew Point: 14 F (-10 C)
Relative Humidity: 73%
Pressure (altimeter): 30.17 in. Hg (1021 hPa)
ob: KSCH 260258Z 29005KT 10SM SCT036 OVC046 M06/M10 A3017 RMK LAST
cycle: 3

Station Type Date Time Source
KSCH TAF UTC NOAA

Error!

Example: see airport list